Crawford, Oklahoma
Current Conditions -  °F | °C
As of 3:53 AM on Tuesday 27 Jan 2015 (Local Time) from KGAG Reporting Station
Clear Clear  
Wind Chill: 32°   Ceiling: Unl
Heat Index: 38°   Visibility: 10mi
Dew Point: 32°   Wind: 8mph
Humidity: 79%   Direction: 270°W
Pressure: 30.14"   Gusts: NA
Location:  35.83°N, 99.8°W
Report Text: KGAG 270953Z AUTO 27007KT 10SM CLR 03/00 A3014 RMK AO2 SLP198 T00330000
Loading
Personal Weather Stations






























Interactive Weather Map New forecast layout! Learn more

10-Day Weather Forecast

Advertisements
Track Severe Weather on mobile